sensor_id;sensor_type;location;lat;lon;timestamp;temperature;humidity
52965;DHT22;42923;53.220;6.528;2024-03-06T00:00:49;5.10;99.90
52965;DHT22;42923;53.220;6.528;2024-03-06T00:03:14;5.10;99.90
52965;DHT22;42923;53.220;6.528;2024-03-06T00:05:40;5.10;99.90
52965;DHT22;42923;53.220;6.528;2024-03-06T00:08:06;5.10;99.90
52965;DHT22;42923;53.220;6.528;2024-03-06T00:10:32;5.10;99.90
52965;DHT22;42923;53.220;6.528;2024-03-06T00:12:57;4.70;99.90
52965;DHT22;42923;53.220;6.528;2024-03-06T00:15:23;5.10;99.90
52965;DHT22;42923;53.220;6.528;2024-03-06T00:17:49;5.10;99.90
52965;DHT22;42923;53.220;6.528;2024-03-06T00:20:15;5.10;99.90
52965;DHT22;42923;53.220;6.528;2024-03-06T00:22:41;5.30;99.90
52965;DHT22;42923;53.220;6.528;2024-03-06T00:25:07;5.10;99.90
52965;DHT22;42923;53.220;6.528;2024-03-06T00:27:34;5.10;99.90
52965;DHT22;42923;53.220;6.528;2024-03-06T00:29:59;5.10;99.90
52965;DHT22;42923;53.220;6.528;2024-03-06T00:32:25;5.10;99.90
52965;DHT22;42923;53.220;6.528;2024-03-06T00:34:51;5.10;99.90
52965;DHT22;42923;53.220;6.528;2024-03-06T00:37:16;5.10;99.90
52965;DHT22;42923;53.220;6.528;2024-03-06T00:39:43;6.40;99.90
52965;DHT22;42923;53.220;6.528;2024-03-06T00:42:08;5.10;99.90
52965;DHT22;42923;53.220;6.528;2024-03-06T00:44:35;5.10;99.90
52965;DHT22;42923;53.220;6.528;2024-03-06T00:47:01;5.10;99.90
52965;DHT22;42923;53.220;6.528;2024-03-06T00:49:27;5.10;99.90
52965;DHT22;42923;53.220;6.528;2024-03-06T00:51:52;5.10;99.90
52965;DHT22;42923;53.220;6.528;2024-03-06T00:54:18;5.10;99.90
52965;DHT22;42923;53.220;6.528;2024-03-06T00:56:44;5.10;99.90
52965;DHT22;42923;53.220;6.528;2024-03-06T00:59:09;5.10;99.90
52965;DHT22;42923;53.220;6.528;2024-03-06T01:01:36;5.10;99.90
52965;DHT22;42923;53.220;6.528;2024-03-06T01:04:01;5.10;99.90
52965;DHT22;42923;53.220;6.528;2024-03-06T01:06:28;5.10;99.90
52965;DHT22;42923;53.220;6.528;2024-03-06T01:08:53;5.10;99.90
52965;DHT22;42923;53.220;6.528;2024-03-06T01:11:20;5.10;99.90
52965;DHT22;42923;53.220;6.528;2024-03-06T01:13:45;5.10;99.90
52965;DHT22;42923;53.220;6.528;2024-03-06T01:16:11;5.10;99.90
52965;DHT22;42923;53.220;6.528;2024-03-06T01:18:37;5.10;99.90
52965;DHT22;42923;53.220;6.528;2024-03-06T01:21:02;5.10;99.90
52965;DHT22;42923;53.220;6.528;2024-03-06T01:23:29;5.00;99.90
52965;DHT22;42923;53.220;6.528;2024-03-06T01:25:54;5.00;99.90
52965;DHT22;42923;53.220;6.528;2024-03-06T01:28:20;5.10;99.90
52965;DHT22;42923;53.220;6.528;2024-03-06T01:30:46;5.10;99.90
52965;DHT22;42923;53.220;6.528;2024-03-06T01:33:12;5.10;99.90
52965;DHT22;42923;53.220;6.528;2024-03-06T01:35:37;5.10;99.90
52965;DHT22;42923;53.220;6.528;2024-03-06T01:38:03;5.10;99.90
52965;DHT22;42923;53.220;6.528;2024-03-06T01:40:29;5.10;99.90
52965;DHT22;42923;53.220;6.528;2024-03-06T01:42:55;5.00;99.90
52965;DHT22;42923;53.220;6.528;2024-03-06T01:45:21;5.10;99.90
52965;DHT22;42923;53.220;6.528;2024-03-06T01:47:47;5.10;99.90
52965;DHT22;42923;53.220;6.528;2024-03-06T01:50:13;5.10;99.90
52965;DHT22;42923;53.220;6.528;2024-03-06T01:52:41;5.10;99.90
52965;DHT22;42923;53.220;6.528;2024-03-06T01:55:07;5.00;99.90
52965;DHT22;42923;53.220;6.528;2024-03-06T01:57:34;5.10;99.90
52965;DHT22;42923;53.220;6.528;2024-03-06T02:00:02;6.00;99.90
52965;DHT22;42923;53.220;6.528;2024-03-06T02:02:30;5.10;99.90
52965;DHT22;42923;53.220;6.528;2024-03-06T02:04:56;5.00;99.90
52965;DHT22;42923;53.220;6.528;2024-03-06T02:07:24;5.00;99.90
52965;DHT22;42923;53.220;6.528;2024-03-06T02:09:50;5.00;99.90
52965;DHT22;42923;53.220;6.528;2024-03-06T02:12:15;5.00;99.90
52965;DHT22;42923;53.220;6.528;2024-03-06T02:14:41;5.00;99.90
52965;DHT22;42923;53.220;6.528;2024-03-06T02:17:07;4.90;99.90
52965;DHT22;42923;53.220;6.528;2024-03-06T02:19:43;5.00;99.90
52965;DHT22;42923;53.220;6.528;2024-03-06T02:22:10;4.90;99.90
52965;DHT22;42923;53.220;6.528;2024-03-06T02:24:36;6.90;99.90
52965;DHT22;42923;53.220;6.528;2024-03-06T02:27:05;4.90;99.90
52965;DHT22;42923;53.220;6.528;2024-03-06T02:29:34;4.90;99.90
52965;DHT22;42923;53.220;6.528;2024-03-06T02:32:00;4.80;99.90
52965;DHT22;42923;53.220;6.528;2024-03-06T02:34:28;4.90;99.90
52965;DHT22;42923;53.220;6.528;2024-03-06T02:36:55;4.90;99.90
52965;DHT22;42923;53.220;6.528;2024-03-06T02:39:21;4.90;99.90
52965;DHT22;42923;53.220;6.528;2024-03-06T02:41:47;4.90;99.90
52965;DHT22;42923;53.220;6.528;2024-03-06T02:44:14;4.80;99.90
52965;DHT22;42923;53.220;6.528;2024-03-06T02:46:41;4.80;99.90
52965;DHT22;42923;53.220;6.528;2024-03-06T02:49:06;4.90;99.90
52965;DHT22;42923;53.220;6.528;2024-03-06T02:51:32;5.10;99.90
52965;DHT22;42923;53.220;6.528;2024-03-06T02:53:58;4.80;99.90
52965;DHT22;42923;53.220;6.528;2024-03-06T02:56:24;4.90;99.90
52965;DHT22;42923;53.220;6.528;2024-03-06T02:58:49;4.80;99.90
52965;DHT22;42923;53.220;6.528;2024-03-06T03:01:15;4.80;99.90
52965;DHT22;42923;53.220;6.528;2024-03-06T03:03:41;6.50;99.90
52965;DHT22;42923;53.220;6.528;2024-03-06T03:06:12;6.20;99.90
52965;DHT22;42923;53.220;6.528;2024-03-06T03:08:38;4.70;99.90
52965;DHT22;42923;53.220;6.528;2024-03-06T03:11:04;4.70;99.90
52965;DHT22;42923;53.220;6.528;2024-03-06T03:13:30;4.70;99.90
52965;DHT22;42923;53.220;6.528;2024-03-06T03:15:56;4.70;99.90
52965;DHT22;42923;53.220;6.528;2024-03-06T03:18:22;4.80;99.90
52965;DHT22;42923;53.220;6.528;2024-03-06T03:20:48;4.70;99.90
52965;DHT22;42923;53.220;6.528;2024-03-06T03:23:14;4.70;99.90
52965;DHT22;42923;53.220;6.528;2024-03-06T03:25:41;4.70;99.90
52965;DHT22;42923;53.220;6.528;2024-03-06T03:28:07;4.70;99.90
52965;DHT22;42923;53.220;6.528;2024-03-06T03:30:32;4.70;99.90
52965;DHT22;42923;53.220;6.528;2024-03-06T03:32:58;4.70;99.90
52965;DHT22;42923;53.220;6.528;2024-03-06T03:35:24;4.70;99.90
52965;DHT22;42923;53.220;6.528;2024-03-06T03:37:53;4.70;99.90
52965;DHT22;42923;53.220;6.528;2024-03-06T03:40:21;4.80;99.90
52965;DHT22;42923;53.220;6.528;2024-03-06T03:42:47;4.70;99.90
52965;DHT22;42923;53.220;6.528;2024-03-06T03:45:13;4.70;99.90
52965;DHT22;42923;53.220;6.528;2024-03-06T03:47:39;4.70;99.90
52965;DHT22;42923;53.220;6.528;2024-03-06T03:50:05;4.70;99.90
52965;DHT22;42923;53.220;6.528;2024-03-06T03:52:31;4.70;99.90
52965;DHT22;42923;53.220;6.528;2024-03-06T03:54:57;4.70;99.90
52965;DHT22;42923;53.220;6.528;2024-03-06T03:57:22;4.70;99.90
52965;DHT22;42923;53.220;6.528;2024-03-06T03:59:48;4.70;99.90
52965;DHT22;42923;53.220;6.528;2024-03-06T04:02:14;4.70;99.90
52965;DHT22;42923;53.220;6.528;2024-03-06T04:04:39;4.60;99.90
52965;DHT22;42923;53.220;6.528;2024-03-06T04:07:05;4.70;99.90
52965;DHT22;42923;53.220;6.528;2024-03-06T04:09:34;4.70;99.90
52965;DHT22;42923;53.220;6.528;2024-03-06T04:12:02;4.70;99.90
52965;DHT22;42923;53.220;6.528;2024-03-06T04:14:29;4.80;99.90
52965;DHT22;42923;53.220;6.528;2024-03-06T04:16:56;4.70;99.90
52965;DHT22;42923;53.220;6.528;2024-03-06T04:19:21;4.70;99.90
52965;DHT22;42923;53.220;6.528;2024-03-06T04:21:47;4.70;99.90
52965;DHT22;42923;53.220;6.528;2024-03-06T04:24:13;5.80;99.90
52965;DHT22;42923;53.220;6.528;2024-03-06T04:26:38;4.70;99.90
52965;DHT22;42923;53.220;6.528;2024-03-06T04:29:04;4.80;99.90
52965;DHT22;42923;53.220;6.528;2024-03-06T04:31:30;4.70;99.90
52965;DHT22;42923;53.220;6.528;2024-03-06T04:33:56;4.70;99.90
52965;DHT22;42923;53.220;6.528;2024-03-06T04:36:21;4.80;99.90
52965;DHT22;42923;53.220;6.528;2024-03-06T04:38:47;4.70;99.90
52965;DHT22;42923;53.220;6.528;2024-03-06T04:41:12;4.70;99.90
52965;DHT22;42923;53.220;6.528;2024-03-06T04:43:38;4.70;99.90
52965;DHT22;42923;53.220;6.528;2024-03-06T04:46:04;4.70;99.90
52965;DHT22;42923;53.220;6.528;2024-03-06T04:48:30;4.70;99.90
52965;DHT22;42923;53.220;6.528;2024-03-06T04:50:56;4.80;99.90
52965;DHT22;42923;53.220;6.528;2024-03-06T04:53:22;4.70;99.90
52965;DHT22;42923;53.220;6.528;2024-03-06T04:55:47;4.60;99.90
52965;DHT22;42923;53.220;6.528;2024-03-06T04:58:13;4.70;99.90
52965;DHT22;42923;53.220;6.528;2024-03-06T05:00:39;4.70;99.90
52965;DHT22;42923;53.220;6.528;2024-03-06T05:03:05;4.70;99.90
52965;DHT22;42923;53.220;6.528;2024-03-06T05:05:30;4.70;99.90
52965;DHT22;42923;53.220;6.528;2024-03-06T05:07:57;5.80;99.90
52965;DHT22;42923;53.220;6.528;2024-03-06T05:10:23;4.70;99.90
52965;DHT22;42923;53.220;6.528;2024-03-06T05:12:49;4.70;99.90
52965;DHT22;42923;53.220;6.528;2024-03-06T05:15:16;4.80;99.90
52965;DHT22;42923;53.220;6.528;2024-03-06T05:17:42;4.80;99.90
52965;DHT22;42923;53.220;6.528;2024-03-06T05:20:08;4.80;99.90
52965;DHT22;42923;53.220;6.528;2024-03-06T05:22:33;4.80;99.90
52965;DHT22;42923;53.220;6.528;2024-03-06T05:24:59;4.70;99.90
52965;DHT22;42923;53.220;6.528;2024-03-06T05:27:25;6.20;99.90
52965;DHT22;42923;53.220;6.528;2024-03-06T05:29:51;5.80;99.90
52965;DHT22;42923;53.220;6.528;2024-03-06T05:32:17;4.80;99.90
52965;DHT22;42923;53.220;6.528;2024-03-06T05:34:43;4.80;99.90
52965;DHT22;42923;53.220;6.528;2024-03-06T05:37:10;4.80;99.90
52965;DHT22;42923;53.220;6.528;2024-03-06T05:39:36;4.80;99.90
52965;DHT22;42923;53.220;6.528;2024-03-06T05:42:07;4.80;99.90
52965;DHT22;42923;53.220;6.528;2024-03-06T05:44:33;4.80;99.90
52965;DHT22;42923;53.220;6.528;2024-03-06T05:47:00;4.70;99.90
52965;DHT22;42923;53.220;6.528;2024-03-06T05:49:27;4.80;99.90
52965;DHT22;42923;53.220;6.528;2024-03-06T05:51:53;4.80;99.90
52965;DHT22;42923;53.220;6.528;2024-03-06T05:54:22;4.80;99.90
52965;DHT22;42923;53.220;6.528;2024-03-06T05:56:49;4.80;99.90
52965;DHT22;42923;53.220;6.528;2024-03-06T05:59:17;4.80;99.90
52965;DHT22;42923;53.220;6.528;2024-03-06T06:01:42;4.80;99.90
52965;DHT22;42923;53.220;6.528;2024-03-06T06:04:10;4.90;99.90
52965;DHT22;42923;53.220;6.528;2024-03-06T06:06:36;7.00;99.90
52965;DHT22;42923;53.220;6.528;2024-03-06T06:09:03;4.80;99.90
52965;DHT22;42923;53.220;6.528;2024-03-06T06:11:33;4.80;99.90
52965;DHT22;42923;53.220;6.528;2024-03-06T06:13:59;6.50;99.90
52965;DHT22;42923;53.220;6.528;2024-03-06T06:16:24;4.80;99.90
52965;DHT22;42923;53.220;6.528;2024-03-06T06:18:50;6.30;99.90
52965;DHT22;42923;53.220;6.528;2024-03-06T06:21:16;6.50;99.90
52965;DHT22;42923;53.220;6.528;2024-03-06T06:23:42;4.90;99.90
52965;DHT22;42923;53.220;6.528;2024-03-06T06:26:08;4.90;99.90
52965;DHT22;42923;53.220;6.528;2024-03-06T06:28:36;4.90;99.90
52965;DHT22;42923;53.220;6.528;2024-03-06T06:31:03;4.90;99.90
52965;DHT22;42923;53.220;6.528;2024-03-06T06:33:30;4.90;99.90
52965;DHT22;42923;53.220;6.528;2024-03-06T06:35:55;4.90;99.90
52965;DHT22;42923;53.220;6.528;2024-03-06T06:38:21;4.90;99.90
52965;DHT22;42923;53.220;6.528;2024-03-06T06:40:47;4.90;99.90
52965;DHT22;42923;53.220;6.528;2024-03-06T06:43:13;5.00;99.90
52965;DHT22;42923;53.220;6.528;2024-03-06T06:45:39;5.00;99.90
52965;DHT22;42923;53.220;6.528;2024-03-06T06:48:06;5.00;99.90
52965;DHT22;42923;53.220;6.528;2024-03-06T06:50:32;5.00;99.90
52965;DHT22;42923;53.220;6.528;2024-03-06T06:52:59;5.00;99.90
52965;DHT22;42923;53.220;6.528;2024-03-06T06:55:25;5.00;99.90
52965;DHT22;42923;53.220;6.528;2024-03-06T06:57:50;5.00;99.90
52965;DHT22;42923;53.220;6.528;2024-03-06T07:00:16;5.10;99.90
52965;DHT22;42923;53.220;6.528;2024-03-06T07:02:44;5.10;99.90
52965;DHT22;42923;53.220;6.528;2024-03-06T07:05:11;6.70;99.90
52965;DHT22;42923;53.220;6.528;2024-03-06T07:07:37;5.10;99.90
52965;DHT22;42923;53.220;6.528;2024-03-06T07:10:04;5.10;99.90
52965;DHT22;42923;53.220;6.528;2024-03-06T07:12:30;5.20;99.90
52965;DHT22;42923;53.220;6.528;2024-03-06T07:14:57;5.20;99.90
52965;DHT22;42923;53.220;6.528;2024-03-06T07:17:23;5.10;99.90
52965;DHT22;42923;53.220;6.528;2024-03-06T07:19:48;5.70;99.90
52965;DHT22;42923;53.220;6.528;2024-03-06T07:22:15;5.20;99.90
52965;DHT22;42923;53.220;6.528;2024-03-06T07:24:40;5.20;99.90
52965;DHT22;42923;53.220;6.528;2024-03-06T07:27:07;5.20;99.90
52965;DHT22;42923;53.220;6.528;2024-03-06T07:29:35;5.30;99.90
52965;DHT22;42923;53.220;6.528;2024-03-06T07:32:01;5.30;99.90
52965;DHT22;42923;53.220;6.528;2024-03-06T07:34:26;5.30;99.90
52965;DHT22;42923;53.220;6.528;2024-03-06T07:36:53;5.30;99.90
52965;DHT22;42923;53.220;6.528;2024-03-06T07:39:20;5.40;99.90
52965;DHT22;42923;53.220;6.528;2024-03-06T07:41:46;5.40;99.90
52965;DHT22;42923;53.220;6.528;2024-03-06T07:44:12;5.50;99.90
52965;DHT22;42923;53.220;6.528;2024-03-06T07:46:38;5.40;99.90
52965;DHT22;42923;53.220;6.528;2024-03-06T07:49:04;6.60;99.90
52965;DHT22;42923;53.220;6.528;2024-03-06T07:51:31;6.40;99.90
52965;DHT22;42923;53.220;6.528;2024-03-06T07:53:57;5.50;99.90
52965;DHT22;42923;53.220;6.528;2024-03-06T07:56:24;5.60;99.90
52965;DHT22;42923;53.220;6.528;2024-03-06T07:58:50;5.60;99.90
52965;DHT22;42923;53.220;6.528;2024-03-06T08:01:16;5.70;99.90
52965;DHT22;42923;53.220;6.528;2024-03-06T08:03:42;5.70;99.90
52965;DHT22;42923;53.220;6.528;2024-03-06T08:06:09;5.70;99.90
52965;DHT22;42923;53.220;6.528;2024-03-06T08:08:35;5.80;99.90
52965;DHT22;42923;53.220;6.528;2024-03-06T08:11:02;5.80;99.90
52965;DHT22;42923;53.220;6.528;2024-03-06T08:13:28;5.80;99.90
52965;DHT22;42923;53.220;6.528;2024-03-06T08:15:53;5.90;99.90
52965;DHT22;42923;53.220;6.528;2024-03-06T08:18:19;5.90;99.90
52965;DHT22;42923;53.220;6.528;2024-03-06T08:20:45;5.90;99.90
52965;DHT22;42923;53.220;6.528;2024-03-06T08:23:10;5.90;99.90
52965;DHT22;42923;53.220;6.528;2024-03-06T08:25:36;5.90;99.90
52965;DHT22;42923;53.220;6.528;2024-03-06T08:28:02;6.00;99.90
52965;DHT22;42923;53.220;6.528;2024-03-06T08:30:31;6.10;99.90
52965;DHT22;42923;53.220;6.528;2024-03-06T08:32:58;6.20;99.90
52965;DHT22;42923;53.220;6.528;2024-03-06T08:35:23;6.30;99.90
52965;DHT22;42923;53.220;6.528;2024-03-06T08:37:50;6.40;99.90
52965;DHT22;42923;53.220;6.528;2024-03-06T08:40:17;6.40;99.90
52965;DHT22;42923;53.220;6.528;2024-03-06T08:42:52;6.60;99.90
52965;DHT22;42923;53.220;6.528;2024-03-06T08:45:17;7.50;99.90
52965;DHT22;42923;53.220;6.528;2024-03-06T08:47:44;6.80;99.90
52965;DHT22;42923;53.220;6.528;2024-03-06T08:50:11;8.80;99.90
52965;DHT22;42923;53.220;6.528;2024-03-06T08:52:38;6.80;99.90
52965;DHT22;42923;53.220;6.528;2024-03-06T08:55:05;6.90;99.90
52965;DHT22;42923;53.220;6.528;2024-03-06T08:57:34;7.00;99.90
52965;DHT22;42923;53.220;6.528;2024-03-06T09:00:01;7.40;99.90
52965;DHT22;42923;53.220;6.528;2024-03-06T09:02:26;7.40;99.90
52965;DHT22;42923;53.220;6.528;2024-03-06T09:04:53;7.70;99.90
52965;DHT22;42923;53.220;6.528;2024-03-06T09:07:19;7.40;99.90
52965;DHT22;42923;53.220;6.528;2024-03-06T09:09:45;7.40;99.90
52965;DHT22;42923;53.220;6.528;2024-03-06T09:12:11;7.50;99.90
52965;DHT22;42923;53.220;6.528;2024-03-06T09:14:38;8.10;99.90
52965;DHT22;42923;53.220;6.528;2024-03-06T09:17:05;7.70;99.90
52965;DHT22;42923;53.220;6.528;2024-03-06T09:19:31;7.70;99.90
52965;DHT22;42923;53.220;6.528;2024-03-06T09:21:57;7.70;99.90
52965;DHT22;42923;53.220;6.528;2024-03-06T09:24:24;8.70;99.90
52965;DHT22;42923;53.220;6.528;2024-03-06T09:26:53;7.70;99.90
52965;DHT22;42923;53.220;6.528;2024-03-06T09:29:20;7.80;99.90
52965;DHT22;42923;53.220;6.528;2024-03-06T09:31:46;7.80;99.90
52965;DHT22;42923;53.220;6.528;2024-03-06T09:34:13;8.60;99.90
52965;DHT22;42923;53.220;6.528;2024-03-06T09:36:49;7.90;99.90
52965;DHT22;42923;53.220;6.528;2024-03-06T09:39:16;7.90;99.90
52965;DHT22;42923;53.220;6.528;2024-03-06T09:41:46;8.00;99.90
52965;DHT22;42923;53.220;6.528;2024-03-06T09:44:13;9.80;99.90
52965;DHT22;42923;53.220;6.528;2024-03-06T09:46:43;8.10;99.90
52965;DHT22;42923;53.220;6.528;2024-03-06T09:49:11;9.40;99.90
52965;DHT22;42923;53.220;6.528;2024-03-06T09:51:38;8.70;99.90
52965;DHT22;42923;53.220;6.528;2024-03-06T09:54:07;9.30;99.90
52965;DHT22;42923;53.220;6.528;2024-03-06T09:56:35;8.40;99.90
52965;DHT22;42923;53.220;6.528;2024-03-06T09:59:00;8.60;99.90
52965;DHT22;42923;53.220;6.528;2024-03-06T10:01:27;8.60;99.90
52965;DHT22;42923;53.220;6.528;2024-03-06T10:03:54;9.30;99.90
52965;DHT22;42923;53.220;6.528;2024-03-06T10:06:20;8.50;99.90
52965;DHT22;42923;53.220;6.528;2024-03-06T10:08:46;8.40;99.90
52965;DHT22;42923;53.220;6.528;2024-03-06T10:11:17;8.30;99.90
52965;DHT22;42923;53.220;6.528;2024-03-06T10:13:43;8.30;99.90
52965;DHT22;42923;53.220;6.528;2024-03-06T10:16:09;8.90;99.90
52965;DHT22;42923;53.220;6.528;2024-03-06T10:18:36;8.10;99.90
52965;DHT22;42923;53.220;6.528;2024-03-06T10:21:04;8.10;99.90
52965;DHT22;42923;53.220;6.528;2024-03-06T10:23:31;8.10;99.90
52965;DHT22;42923;53.220;6.528;2024-03-06T10:25:57;8.10;99.90
52965;DHT22;42923;53.220;6.528;2024-03-06T10:28:23;8.10;99.90
52965;DHT22;42923;53.220;6.528;2024-03-06T10:30:50;8.00;99.90
52965;DHT22;42923;53.220;6.528;2024-03-06T10:33:18;8.00;99.90
52965;DHT22;42923;53.220;6.528;2024-03-06T10:35:47;7.90;99.90
52965;DHT22;42923;53.220;6.528;2024-03-06T10:38:14;7.80;99.90
52965;DHT22;42923;53.220;6.528;2024-03-06T10:40:41;7.90;99.90
52965;DHT22;42923;53.220;6.528;2024-03-06T10:43:07;7.90;99.90
52965;DHT22;42923;53.220;6.528;2024-03-06T10:46:13;8.00;99.90
52965;DHT22;42923;53.220;6.528;2024-03-06T10:48:39;8.10;99.90
52965;DHT22;42923;53.220;6.528;2024-03-06T10:51:07;8.30;99.90
52965;DHT22;42923;53.220;6.528;2024-03-06T10:53:34;8.30;99.90
52965;DHT22;42923;53.220;6.528;2024-03-06T10:56:02;8.40;99.90
52965;DHT22;42923;53.220;6.528;2024-03-06T10:58:29;8.50;99.90
52965;DHT22;42923;53.220;6.528;2024-03-06T11:00:56;8.60;99.90
52965;DHT22;42923;53.220;6.528;2024-03-06T11:03:23;8.90;99.90
52965;DHT22;42923;53.220;6.528;2024-03-06T11:05:51;8.80;99.90
52965;DHT22;42923;53.220;6.528;2024-03-06T11:08:17;8.80;99.90
52965;DHT22;42923;53.220;6.528;2024-03-06T11:10:43;9.60;99.90
52965;DHT22;42923;53.220;6.528;2024-03-06T11:13:21;8.80;99.90
52965;DHT22;42923;53.220;6.528;2024-03-06T11:15:49;8.70;99.90
52965;DHT22;42923;53.220;6.528;2024-03-06T11:23:33;8.90;99.90
52965;DHT22;42923;53.220;6.528;2024-03-06T11:26:03;9.00;99.90
52965;DHT22;42923;53.220;6.528;2024-03-06T11:28:35;9.00;99.90
52965;DHT22;42923;53.220;6.528;2024-03-06T11:31:06;9.00;99.90
52965;DHT22;42923;53.220;6.528;2024-03-06T11:33:41;8.90;99.90
52965;DHT22;42923;53.220;6.528;2024-03-06T11:39:06;8.80;99.90
52965;DHT22;42923;53.220;6.528;2024-03-06T11:41:46;9.00;99.90
52965;DHT22;42923;53.220;6.528;2024-03-06T11:44:18;9.00;99.90
52965;DHT22;42923;53.220;6.528;2024-03-06T11:47:00;9.00;99.90
52965;DHT22;42923;53.220;6.528;2024-03-06T11:49:27;9.10;99.90
52965;DHT22;42923;53.220;6.528;2024-03-06T11:52:09;9.20;99.90
52965;DHT22;42923;53.220;6.528;2024-03-06T11:54:35;9.40;99.90
52965;DHT22;42923;53.220;6.528;2024-03-06T11:57:03;9.60;99.90
52965;DHT22;42923;53.220;6.528;2024-03-06T11:59:36;9.70;99.90
52965;DHT22;42923;53.220;6.528;2024-03-06T12:02:05;9.90;99.90
52965;DHT22;42923;53.220;6.528;2024-03-06T12:04:32;10.10;99.90
52965;DHT22;42923;53.220;6.528;2024-03-06T12:07:05;11.50;99.90
52965;DHT22;42923;53.220;6.528;2024-03-06T12:09:35;10.60;99.90
52965;DHT22;42923;53.220;6.528;2024-03-06T12:12:01;10.70;99.90
52965;DHT22;42923;53.220;6.528;2024-03-06T12:14:29;10.60;99.90
52965;DHT22;42923;53.220;6.528;2024-03-06T12:17:00;10.60;99.90
52965;DHT22;42923;53.220;6.528;2024-03-06T12:19:26;12.20;99.90
52965;DHT22;42923;53.220;6.528;2024-03-06T12:21:54;10.90;99.90
52965;DHT22;42923;53.220;6.528;2024-03-06T12:24:19;11.10;99.90
52965;DHT22;42923;53.220;6.528;2024-03-06T12:26:46;11.20;99.90
52965;DHT22;42923;53.220;6.528;2024-03-06T12:29:18;11.10;99.90
52965;DHT22;42923;53.220;6.528;2024-03-06T12:31:47;11.00;99.90
52965;DHT22;42923;53.220;6.528;2024-03-06T12:34:15;11.10;99.90
52965;DHT22;42923;53.220;6.528;2024-03-06T12:36:45;11.10;99.90
52965;DHT22;42923;53.220;6.528;2024-03-06T12:39:15;11.40;99.90
52965;DHT22;42923;53.220;6.528;2024-03-06T12:41:43;11.20;99.90
52965;DHT22;42923;53.220;6.528;2024-03-06T12:44:09;11.40;99.90
52965;DHT22;42923;53.220;6.528;2024-03-06T12:46:35;12.50;99.90
52965;DHT22;42923;53.220;6.528;2024-03-06T12:49:01;11.80;99.90
52965;DHT22;42923;53.220;6.528;2024-03-06T12:51:27;11.80;99.90
52965;DHT22;42923;53.220;6.528;2024-03-06T12:53:52;12.10;99.90
52965;DHT22;42923;53.220;6.528;2024-03-06T12:56:18;11.90;99.90
52965;DHT22;42923;53.220;6.528;2024-03-06T12:58:45;12.00;99.90
52965;DHT22;42923;53.220;6.528;2024-03-06T13:01:10;11.90;99.90
52965;DHT22;42923;53.220;6.528;2024-03-06T13:03:37;11.90;99.90
52965;DHT22;42923;53.220;6.528;2024-03-06T13:06:03;13.20;99.90
52965;DHT22;42923;53.220;6.528;2024-03-06T13:08:30;11.80;99.90
52965;DHT22;42923;53.220;6.528;2024-03-06T13:10:55;11.90;99.90
52965;DHT22;42923;53.220;6.528;2024-03-06T13:13:22;12.00;99.90
52965;DHT22;42923;53.220;6.528;2024-03-06T13:15:50;12.10;99.90
52965;DHT22;42923;53.220;6.528;2024-03-06T13:18:17;12.60;99.90
52965;DHT22;42923;53.220;6.528;2024-03-06T13:20:43;12.80;99.90
52965;DHT22;42923;53.220;6.528;2024-03-06T13:23:09;12.20;99.90
52965;DHT22;42923;53.220;6.528;2024-03-06T13:25:35;12.20;99.90
52965;DHT22;42923;53.220;6.528;2024-03-06T13:28:01;12.20;99.90
52965;DHT22;42923;53.220;6.528;2024-03-06T13:30:27;12.20;99.90
52965;DHT22;42923;53.220;6.528;2024-03-06T13:32:53;12.10;99.90
52965;DHT22;42923;53.220;6.528;2024-03-06T13:35:19;12.40;99.90
52965;DHT22;42923;53.220;6.528;2024-03-06T13:37:46;12.10;99.90
52965;DHT22;42923;53.220;6.528;2024-03-06T13:40:12;12.10;99.90
52965;DHT22;42923;53.220;6.528;2024-03-06T13:42:39;12.00;99.90
52965;DHT22;42923;53.220;6.528;2024-03-06T13:45:09;12.20;99.90
52965;DHT22;42923;53.220;6.528;2024-03-06T13:47:38;12.20;99.90
52965;DHT22;42923;53.220;6.528;2024-03-06T13:50:10;13.10;99.90
52965;DHT22;42923;53.220;6.528;2024-03-06T13:52:36;12.70;99.90
52965;DHT22;42923;53.220;6.528;2024-03-06T13:55:02;12.80;99.90
52965;DHT22;42923;53.220;6.528;2024-03-06T13:57:33;13.00;99.90
52965;DHT22;42923;53.220;6.528;2024-03-06T14:00:03;13.40;99.90
52965;DHT22;42923;53.220;6.528;2024-03-06T14:02:37;13.40;99.90
52965;DHT22;42923;53.220;6.528;2024-03-06T14:05:03;13.90;99.90
52965;DHT22;42923;53.220;6.528;2024-03-06T14:07:29;13.50;99.90
52965;DHT22;42923;53.220;6.528;2024-03-06T14:09:54;13.60;99.90
52965;DHT22;42923;53.220;6.528;2024-03-06T14:15:39;13.70;99.90
52965;DHT22;42923;53.220;6.528;2024-03-06T14:18:04;13.70;99.90
52965;DHT22;42923;53.220;6.528;2024-03-06T14:20:31;13.80;99.90
52965;DHT22;42923;53.220;6.528;2024-03-06T14:22:57;14.20;99.90
52965;DHT22;42923;53.220;6.528;2024-03-06T14:25:22;14.40;99.90
52965;DHT22;42923;53.220;6.528;2024-03-06T14:27:49;14.40;99.90
52965;DHT22;42923;53.220;6.528;2024-03-06T14:30:14;14.30;99.90
52965;DHT22;42923;53.220;6.528;2024-03-06T14:32:41;14.00;99.90
52965;DHT22;42923;53.220;6.528;2024-03-06T14:35:07;13.70;99.90
52965;DHT22;42923;53.220;6.528;2024-03-06T14:37:33;13.50;99.90
52965;DHT22;42923;53.220;6.528;2024-03-06T14:39:59;13.40;99.90
52965;DHT22;42923;53.220;6.528;2024-03-06T14:42:25;13.20;99.90
52965;DHT22;42923;53.220;6.528;2024-03-06T14:44:51;13.20;99.90
52965;DHT22;42923;53.220;6.528;2024-03-06T14:47:16;12.90;99.90
52965;DHT22;42923;53.220;6.528;2024-03-06T14:49:42;12.70;99.90
52965;DHT22;42923;53.220;6.528;2024-03-06T14:52:11;12.70;99.90
52965;DHT22;42923;53.220;6.528;2024-03-06T14:54:36;12.60;99.90
52965;DHT22;42923;53.220;6.528;2024-03-06T14:57:02;13.20;99.90
52965;DHT22;42923;53.220;6.528;2024-03-06T14:59:28;11.90;99.90
52965;DHT22;42923;53.220;6.528;2024-03-06T15:01:54;11.70;99.90
52965;DHT22;42923;53.220;6.528;2024-03-06T15:04:19;11.60;99.90
52965;DHT22;42923;53.220;6.528;2024-03-06T15:06:46;11.40;99.90
52965;DHT22;42923;53.220;6.528;2024-03-06T15:09:12;11.30;99.90
52965;DHT22;42923;53.220;6.528;2024-03-06T15:11:41;11.20;99.90
52965;DHT22;42923;53.220;6.528;2024-03-06T15:14:10;11.20;99.90
52965;DHT22;42923;53.220;6.528;2024-03-06T15:16:36;11.20;99.90
52965;DHT22;42923;53.220;6.528;2024-03-06T15:19:03;11.80;99.90
52965;DHT22;42923;53.220;6.528;2024-03-06T15:21:29;11.90;99.90
52965;DHT22;42923;53.220;6.528;2024-03-06T15:23:56;11.80;99.90
52965;DHT22;42923;53.220;6.528;2024-03-06T15:26:22;11.20;99.90
52965;DHT22;42923;53.220;6.528;2024-03-06T15:28:48;11.20;99.90
52965;DHT22;42923;53.220;6.528;2024-03-06T15:31:14;11.00;99.90
52965;DHT22;42923;53.220;6.528;2024-03-06T15:33:39;11.00;99.90
52965;DHT22;42923;53.220;6.528;2024-03-06T15:36:05;11.70;99.90
52965;DHT22;42923;53.220;6.528;2024-03-06T15:38:31;11.00;99.90
52965;DHT22;42923;53.220;6.528;2024-03-06T15:40:57;11.00;99.90
52965;DHT22;42923;53.220;6.528;2024-03-06T15:43:23;10.90;99.90
52965;DHT22;42923;53.220;6.528;2024-03-06T15:45:49;10.90;99.90
52965;DHT22;42923;53.220;6.528;2024-03-06T15:48:15;10.80;99.90
52965;DHT22;42923;53.220;6.528;2024-03-06T15:50:41;10.60;99.90